Time;durP1;ratioP1;P1;durP2;ratioP2;P2;SDS_P1;SDS_P2;PMS_P1;PMS_P2;Temp;Humidity;BMP_temperature;BMP_pressure;BME280_temperature;BME280_humidity;BME280_pressure;Samples;Min_cycle;Max_cycle;Signal;HPM_P1;HPM_P2
2022/09/07 00:01:32;;;;;;;3.67;1.77;;;;;;;18.21;98.72;99302.78;5032016;28;20132;-70
2022/09/07 00:03:59;;;;;;;4.50;1.92;;;;;;;18.24;98.39;99305.16;5032073;28;20136;-70
2022/09/07 00:06:26;;;;;;;6.40;2.25;;;;;;;18.19;98.73;99299.38;5031801;28;20084;-71
2022/09/07 00:08:52;;;;;;;3.83;2.70;;;;;;;18.16;99.95;99301.47;5032116;28;20076;-71
2022/09/07 00:11:21;;;;;;;6.22;3.25;;;;;;;18.16;98.88;99306.81;5032170;28;20076;-71
2022/09/07 00:13:49;;;;;;;10.88;3.25;;;;;;;18.15;100.00;99300.63;5031873;28;20120;-71
2022/09/07 00:16:19;;;;;;;5.78;2.78;;;;;;;18.13;100.00;99296.41;5031599;28;20049;-71
2022/09/07 00:18:46;;;;;;;5.72;3.00;;;;;;;18.09;100.00;99278.97;5031665;28;20085;-73
2022/09/07 00:21:13;;;;;;;6.55;2.33;;;;;;;18.07;100.00;99286.31;5029586;28;20042;-71
2022/09/07 00:23:40;;;;;;;7.35;2.58;;;;;;;18.03;100.00;99283.88;5023134;28;20073;-70
2022/09/07 00:26:09;;;;;;;7.75;2.45;;;;;;;18.06;100.00;99284.59;5031136;28;20481;-71
2022/09/07 00:28:38;;;;;;;3.78;2.33;;;;;;;18.07;99.58;99279.13;5031590;28;20045;-70
2022/09/07 00:31:10;;;;;;;4.60;2.47;;;;;;;18.04;98.56;99284.75;5031561;28;20045;-71
2022/09/07 00:33:37;;;;;;;4.40;2.75;;;;;;;18.02;99.13;99279.53;5031415;28;20580;-70
2022/09/07 00:36:04;;;;;;;6.60;2.65;;;;;;;18.05;98.63;99278.41;5031272;28;20071;-71
2022/09/07 00:38:31;;;;;;;9.10;2.60;;;;;;;18.02;98.21;99262.69;5031097;28;20135;-70
2022/09/07 00:40:57;;;;;;;7.78;3.10;;;;;;;18.01;98.05;99258.31;5031213;28;20045;-71
2022/09/07 00:43:33;;;;;;;4.43;2.10;;;;;;;18.02;97.77;99258.19;5030261;28;20151;-70
2022/09/07 00:46:01;;;;;;;;;;;;;;;18.04;98.42;99250.06;5031416;28;20049;-70
2022/09/07 00:48:34;;;;;;;2.65;2.00;;;;;;;18.03;98.84;99256.38;5031068;28;20019;-70
2022/09/07 00:51:05;;;;;;;5.28;2.40;;;;;;;18.01;99.78;99250.31;5031141;28;20144;-70
2022/09/07 00:53:34;;;;;;;3.30;1.98;;;;;;;18.05;99.36;99256.25;5030857;28;20073;-70
2022/09/07 00:56:02;;;;;;;5.93;2.53;;;;;;;18.09;98.37;99263.84;5030849;28;20140;-70
2022/09/07 00:58:30;;;;;;;4.75;2.30;;;;;;;18.09;98.25;99266.50;5031120;28;20140;-69
2022/09/07 01:00:57;;;;;;;4.15;2.65;;;;;;;18.14;98.25;99274.94;5030799;28;20137;-69
2022/09/07 01:03:29;;;;;;;3.53;2.20;;;;;;;18.14;98.89;99284.75;5030925;28;20056;-69
2022/09/07 01:05:59;;;;;;;2.80;1.65;;;;;;;18.16;98.83;99293.47;5030697;28;20049;-70
2022/09/07 01:08:26;;;;;;;4.28;2.10;;;;;;;18.15;99.12;99300.63;5031225;28;20333;-70
2022/09/07 01:10:53;;;;;;;9.73;2.70;;;;;;;18.12;99.35;99284.91;5031070;28;20148;-69
2022/09/07 01:13:19;;;;;;;4.85;2.47;;;;;;;18.09;98.89;99286.97;5031030;28;20061;-69
2022/09/07 01:15:53;;;;;;;3.70;2.28;;;;;;;18.04;99.94;99282.09;5030618;28;20104;-70
2022/09/07 01:18:32;;;;;;;4.03;1.90;;;;;;;18.00;100.00;99278.81;5026373;28;20053;-70
2022/09/07 01:21:24;;;;;;;3.28;2.22;;;;;;;18.01;99.29;99277.81;5028126;28;20050;-71
2022/09/07 01:24:19;;;;;;;4.38;2.78;;;;;;;18.06;99.04;99282.75;5030247;28;20065;-71
2022/09/07 01:27:38;;;;;;;5.07;1.88;;;;;;;18.05;98.52;99283.75;5030514;28;20140;-71
2022/09/07 01:30:08;;;;;;;4.05;2.10;;;;;;;18.05;99.37;99283.75;5030409;28;20136;-70
2022/09/07 01:32:46;;;;;;;9.07;2.80;;;;;;;18.03;98.89;99280.38;5030124;28;20508;-70
2022/09/07 01:35:21;;;;;;;2.33;1.83;;;;;;;18.02;98.84;99284.03;5028238;28;20049;-70
2022/09/07 01:37:56;;;;;;;9.07;3.25;;;;;;;17.98;98.41;99285.28;5030086;28;20085;-70
2022/09/07 01:40:30;;;;;;;4.65;2.10;;;;;;;17.95;99.57;99280.22;5030400;28;20148;-70
2022/09/07 01:43:03;;;;;;;4.90;2.47;;;;;;;17.95;98.71;99274.88;5029753;28;20160;-70
2022/09/07 01:45:36;;;;;;;3.63;2.15;;;;;;;17.91;99.24;99260.97;5030340;28;20140;-70
2022/09/07 01:48:06;;;;;;;6.07;2.08;;;;;;;17.89;98.85;99254.06;5029382;28;20415;-70
2022/09/07 01:50:38;;;;;;;7.28;2.03;;;;;;;17.85;98.38;99248.19;5030054;28;20131;-70
2022/09/07 01:53:11;;;;;;;4.85;2.13;;;;;;;17.86;98.99;99241.84;5029778;28;20152;-70
2022/09/07 01:55:43;;;;;;;7.28;2.55;;;;;;;17.85;98.09;99240.19;5029947;28;20131;-70
2022/09/07 01:58:17;;;;;;;4.75;2.50;;;;;;;17.84;97.80;99243.81;5030040;28;20140;-71
2022/09/07 02:00:52;;;;;;;4.88;3.10;;;;;;;17.78;98.62;99242.50;5030086;28;20085;-70
2022/09/07 02:03:23;;;;;;;4.35;2.15;;;;;;;17.68;100.00;99243.44;5029838;28;20045;-70
2022/09/07 02:05:57;;;;;;;2.58;2.05;;;;;;;17.68;100.00;99243.44;5029935;28;20077;-70
2022/09/07 02:08:28;;;;;;;5.00;2.90;;;;;;;17.58;100.00;99238.06;5029843;28;20056;-70
2022/09/07 02:10:59;;;;;;;4.07;2.33;;;;;;;17.52;100.00;99239.47;5029966;28;20137;-70
2022/09/07 02:13:33;;;;;;;4.32;2.60;;;;;;;17.50;100.00;99237.88;5029743;28;20053;-71
2022/09/07 02:16:05;;;;;;;4.88;2.50;;;;;;;17.48;100.00;99237.19;5021895;28;20057;-70
2022/09/07 02:18:38;;;;;;;3.38;2.05;;;;;;;17.49;100.00;99239.72;5030581;28;20060;-70
2022/09/07 02:21:08;;;;;;;3.97;2.30;;;;;;;17.50;100.00;99243.22;5030758;28;20477;-71
2022/09/07 02:23:40;;;;;;;3.80;2.00;;;;;;;17.48;100.00;99237.19;5030556;28;20128;-72
2022/09/07 02:26:13;;;;;;;2.95;2.15;;;;;;;17.44;100.00;99238.44;5030139;28;20080;-72
2022/09/07 02:28:40;;;;;;;3.97;1.98;;;;;;;17.43;100.00;99244.75;5029584;28;20140;-70
2022/09/07 02:31:08;;;;;;;3.50;2.15;;;;;;;17.50;99.95;99249.41;5029712;28;20050;-70
2022/09/07 02:33:35;;;;;;;2.58;2.10;;;;;;;17.54;100.00;99247.31;5029754;28;20107;-70
2022/09/07 02:36:03;;;;;;;5.78;1.90;;;;;;;17.50;100.00;99252.06;5030526;28;20049;-73
2022/09/07 02:38:30;;;;;;;3.28;2.03;;;;;;;17.48;100.00;99255.84;5032432;28;20084;-72
2022/09/07 02:40:59;;;;;;;3.85;2.05;;;;;;;17.48;100.00;99253.19;5032328;28;20061;-72
2022/09/07 02:43:28;;;;;;;7.25;2.33;;;;;;;17.42;100.00;99248.38;5032137;28;20144;-72
2022/09/07 02:46:14;;;;;;;6.15;2.08;;;;;;;17.43;99.74;99248.25;5032019;28;20067;-72
2022/09/07 02:48:48;;;;;;;;;;;;;;;17.36;98.92;99247.09;5031770;28;20468;-72
2022/09/07 02:51:22;;;;;;;2.75;1.73;;;;;;;17.39;99.96;99241.47;5031303;28;19968;-72
2022/09/07 02:54:01;;;;;;;3.22;2.20;;;;;;;17.34;99.46;99247.22;5030362;28;20499;-72
2022/09/07 02:56:45;;;;;;;7.07;2.60;;;;;;;17.29;100.00;99237.94;5032228;28;20053;-72
2022/09/07 02:59:23;;;;;;;4.38;2.53;;;;;;;17.24;100.00;99240.97;5033957;28;20080;-71
2022/09/07 03:01:57;;;;;;;2.97;1.73;;;;;;;17.18;100.00;99241.53;5032265;28;20046;-71
2022/09/07 03:04:38;;;;;;;2.55;1.98;;;;;;;17.14;98.82;99242.75;5029005;28;20077;-73
2022/09/07 03:07:10;;;;;;;4.30;1.70;;;;;;;17.11;99.05;99235.88;5031374;28;20195;-72
2022/09/07 03:09:41;;;;;;;4.90;2.80;;;;;;;17.10;99.27;99233.31;5033344;28;20073;-71
2022/09/07 03:12:08;;;;;;;2.92;1.92;;;;;;;17.04;100.00;99228.53;5025046;28;20132;-71
2022/09/07 03:14:38;;;;;;;3.00;2.05;;;;;;;17.04;100.00;99225.88;5032921;28;20059;-72
2022/09/07 03:17:05;;;;;;;6.10;2.05;;;;;;;17.01;99.69;99226.13;5032956;28;20144;-72
2022/09/07 03:19:33;;;;;;;4.03;2.05;;;;;;;16.99;100.00;99226.25;5033051;28;20466;-71
2022/09/07 03:22:00;;;;;;;1.80;1.38;;;;;;;16.99;100.00;99230.75;5032915;28;20347;-72
2022/09/07 03:24:26;;;;;;;3.53;2.03;;;;;;;17.01;100.00;99231.47;5032848;28;20085;-71
2022/09/07 03:26:53;;;;;;;2.75;1.90;;;;;;;16.96;100.00;99226.53;5032798;28;20111;-71
2022/09/07 03:29:20;;;;;;;2.47;1.73;;;;;;;16.93;99.23;99226.75;5032857;28;20578;-71
2022/09/07 03:31:47;;;;;;;3.95;2.03;;;;;;;16.91;99.71;99226.91;5032441;28;20128;-71
2022/09/07 03:34:14;;;;;;;2.40;1.88;;;;;;;16.89;99.89;99226.19;5032569;28;20721;-71
2022/09/07 03:36:42;;;;;;;3.20;1.70;;;;;;;16.92;100.00;99230.41;5032352;28;20091;-71
2022/09/07 03:39:11;;;;;;;3.63;1.83;;;;;;;16.91;99.91;99221.59;5032449;28;20049;-72
2022/09/07 03:41:38;;;;;;;3.97;1.90;;;;;;;16.92;99.61;99217.94;5034844;28;20061;-71
2022/09/07 03:44:06;;;;;;;5.88;1.55;;;;;;;16.92;99.22;99214.44;5032316;28;20076;-73
2022/09/07 03:46:33;;;;;;;2.55;1.50;;;;;;;16.92;97.64;99214.44;5032418;28;20497;-72
2022/09/07 03:49:00;;;;;;;3.40;1.70;;;;;;;16.92;97.80;99215.28;5033866;28;20132;-71
2022/09/07 03:51:27;;;;;;;5.05;1.80;;;;;;;16.91;97.96;99216.25;5034582;28;20136;-71
2022/09/07 03:53:56;;;;;;;2.80;1.85;;;;;;;16.90;99.08;99206.56;5034234;28;20140;-71
2022/09/07 03:56:24;;;;;;;2.38;1.50;;;;;;;16.88;98.35;99213.00;5033588;28;20060;-72
2022/09/07 03:58:51;;;;;;;5.88;1.85;;;;;;;16.87;98.24;99211.31;5033982;28;20128;-71
2022/09/07 04:01:19;;;;;;;4.40;2.20;;;;;;;16.84;98.73;99222.25;5033610;28;20057;-72
2022/09/07 04:03:47;;;;;;;3.25;1.83;;;;;;;16.84;98.80;99220.41;5036116;28;20140;-72
2022/09/07 04:06:14;;;;;;;4.20;1.92;;;;;;;16.85;97.28;99222.09;5033898;28;20557;-72
2022/09/07 04:08:42;;;;;;;3.70;1.60;;;;;;;16.87;96.90;99216.66;5029335;28;20080;-71
2022/09/07 04:11:13;;;;;;;2.80;1.65;;;;;;;16.82;96.95;99219.69;5018666;28;20046;-69
2022/09/07 04:13:40;;;;;;;2.50;1.75;;;;;;;16.77;96.04;99221.88;5018528;28;20073;-70
2022/09/07 04:16:12;;;;;;;2.50;1.80;;;;;;;16.73;95.93;99223.09;5018134;28;20045;-70
2022/09/07 04:18:39;;;;;;;4.28;2.17;;;;;;;16.65;97.79;99223.72;5016512;28;20058;-70
2022/09/07 04:21:06;;;;;;;2.40;1.90;;;;;;;16.66;98.26;99221.91;5014754;28;20133;-70
2022/09/07 04:23:33;;;;;;;4.10;1.50;;;;;;;16.63;97.21;99219.50;5014005;28;20637;-70
2022/09/07 04:26:00;;;;;;;1.70;1.42;;;;;;;16.67;96.92;99216.47;5020927;28;20050;-70
2022/09/07 04:28:28;;;;;;;4.28;1.75;;;;;;;16.70;97.64;99208.22;5028672;28;20050;-70
2022/09/07 04:30:54;;;;;;;7.20;1.60;;;;;;;16.73;97.73;99209.78;5029822;28;20073;-70
2022/09/07 04:33:21;;;;;;;2.63;1.88;;;;;;;16.69;96.18;99213.69;5043758;28;20445;-71
2022/09/07 04:35:48;;;;;;;2.03;1.38;;;;;;;16.65;97.00;99221.06;5040390;28;20594;-71
2022/09/07 04:38:16;;;;;;;6.53;2.17;;;;;;;16.67;96.96;99220.94;5034188;28;20489;-71
2022/09/07 04:40:42;;;;;;;2.70;1.92;;;;;;;16.69;97.55;99211.88;5033267;28;20493;-70
2022/09/07 04:43:11;;;;;;;2.85;1.92;;;;;;;16.64;97.55;99221.22;5031784;28;20571;-70
2022/09/07 04:45:40;;;;;;;1.98;1.45;;;;;;;16.69;98.03;99208.38;5031840;28;20072;-70
2022/09/07 04:48:07;;;;;;;3.97;2.00;;;;;;;16.71;98.07;99204.59;5031784;28;20132;-71
2022/09/07 04:50:34;;;;;;;3.83;2.10;;;;;;;16.71;98.17;99207.25;5032166;28;20175;-75
2022/09/07 04:53:00;;;;;;;5.88;2.10;;;;;;;16.73;98.34;99201.78;5032155;28;20128;-72
2022/09/07 04:55:27;;;;;;;2.70;1.90;;;;;;;16.72;98.34;99195.63;5032260;28;20453;-70
2022/09/07 04:57:54;;;;;;;4.90;2.40;;;;;;;16.73;97.96;99199.13;5031475;28;20076;-73
2022/09/07 05:00:20;;;;;;;4.40;2.05;;;;;;;16.74;98.82;99204.34;5032371;28;20223;-71
2022/09/07 05:02:48;;;;;;;2.00;1.48;;;;;;;16.80;98.15;99202.16;5031916;28;20080;-70
2022/09/07 05:05:15;;;;;;;3.45;1.88;;;;;;;16.84;97.66;99199.13;5020037;28;20136;-71
2022/09/07 05:07:42;;;;;;;4.78;2.05;;;;;;;16.87;96.07;99203.34;5012403;28;20114;-70
2022/09/07 05:10:09;;;;;;;3.35;2.05;;;;;;;16.87;96.59;99195.34;5014600;28;20096;-71
2022/09/07 05:12:35;;;;;;;5.32;2.30;;;;;;;16.91;97.41;99207.44;5014890;28;20484;-72
2022/09/07 05:15:03;;;;;;;3.08;2.03;;;;;;;16.95;97.26;99215.00;5013869;28;20139;-73
2022/09/07 05:17:30;;;;;;;2.70;1.80;;;;;;;17.00;96.78;99206.63;5012548;28;20438;-73
2022/09/07 05:19:58;;;;;;;5.07;1.75;;;;;;;17.05;96.84;99201.75;5011831;28;20049;-72
2022/09/07 05:22:25;;;;;;;3.47;2.58;;;;;;;17.05;96.49;99201.75;5011720;28;20136;-71
2022/09/07 05:24:52;;;;;;;4.50;2.10;;;;;;;16.94;95.80;99209.81;5011420;28;20049;-71
2022/09/07 05:27:18;;;;;;;4.45;1.88;;;;;;;16.93;96.95;99206.31;5012563;28;20050;-70
2022/09/07 05:29:46;;;;;;;4.97;1.80;;;;;;;16.94;96.66;99213.31;5013692;28;20049;-71
2022/09/07 05:32:12;;;;;;;2.45;1.90;;;;;;;16.99;97.01;99217.44;5019168;28;20047;-73
2022/09/07 05:34:39;;;;;;;4.03;2.50;;;;;;;17.01;97.14;99208.34;5030668;28;20144;-71
2022/09/07 05:37:07;;;;;;;3.50;2.33;;;;;;;17.02;98.09;99211.84;5030357;28;20053;-71
2022/09/07 05:39:34;;;;;;;4.82;2.83;;;;;;;17.03;97.09;99211.72;5030425;28;20112;-69
2022/09/07 05:42:00;;;;;;;5.40;2.13;;;;;;;17.11;97.28;99211.06;5030841;28;20495;-71
2022/09/07 05:44:27;;;;;;;4.22;1.88;;;;;;;17.19;97.63;99216.56;5031219;28;20609;-72
2022/09/07 05:46:54;;;;;;;3.45;2.13;;;;;;;17.26;96.84;99224.88;5033082;28;20049;-71
2022/09/07 05:49:21;;;;;;;6.22;2.58;;;;;;;17.34;95.96;99225.06;5031094;28;20045;-72
2022/09/07 05:51:47;;;;;;;4.78;2.75;;;;;;;17.43;95.42;99229.59;5030872;28;20140;-72
2022/09/07 05:54:15;;;;;;;4.93;2.70;;;;;;;17.49;94.72;99234.38;5031537;28;20053;-72
2022/09/07 05:56:42;;;;;;;4.90;2.15;;;;;;;17.54;95.62;99239.31;5030265;28;20140;-70
2022/09/07 05:59:09;;;;;;;6.15;2.80;;;;;;;17.62;96.10;99233.31;5026797;28;20531;-69
2022/09/07 06:01:36;;;;;;;9.00;2.67;;;;;;;17.64;93.35;99239.34;5025277;28;20081;-70
2022/09/07 06:04:03;;;;;;;4.63;2.05;;;;;;;17.72;92.30;99247.50;5031196;28;20548;-72
2022/09/07 06:06:30;;;;;;;4.55;2.28;;;;;;;17.79;92.25;99248.66;5032460;28;20053;-71
2022/09/07 06:08:57;;;;;;;3.22;2.08;;;;;;;17.86;92.56;99243.69;5032180;28;20136;-71
2022/09/07 06:11:26;;;;;;;3.83;2.05;;;;;;;17.94;92.63;99243.84;5032335;28;20108;-71
2022/09/07 06:13:53;;;;;;;5.18;2.60;;;;;;;18.06;92.37;99248.09;5032539;28;20049;-70
2022/09/07 06:16:20;;;;;;;4.82;2.50;;;;;;;18.14;92.21;99252.72;5031835;28;20509;-70
2022/09/07 06:18:49;;;;;;;4.20;2.13;;;;;;;18.22;90.44;99248.41;5031220;28;20080;-69
2022/09/07 06:21:18;;;;;;;5.00;2.35;;;;;;;18.32;89.79;99240.44;5028919;28;20045;-70
2022/09/07 06:23:46;;;;;;;3.60;2.00;;;;;;;18.45;90.21;99245.50;5025223;28;20066;-70
2022/09/07 06:26:14;;;;;;;6.32;2.42;;;;;;;18.56;89.94;99255.22;5028180;28;20529;-70
2022/09/07 06:28:43;;;;;;;5.95;2.53;;;;;;;18.55;89.35;99265.03;5022335;28;20060;-70
2022/09/07 06:31:12;;;;;;;8.43;2.33;;;;;;;18.52;88.66;99265.31;5023980;28;20568;-70
2022/09/07 06:33:40;;;;;;;5.28;2.05;;;;;;;18.48;88.24;99265.72;5026874;28;20068;-70
2022/09/07 06:36:10;;;;;;;4.88;2.30;;;;;;;18.47;88.52;99264.06;5023730;28;20053;-71
2022/09/07 06:38:38;;;;;;;5.82;2.78;;;;;;;18.42;88.71;99270.63;5024239;28;20109;-70
2022/09/07 06:41:07;;;;;;;4.25;2.15;;;;;;;18.30;89.23;99271.75;5024654;28;20139;-71
2022/09/07 06:43:34;;;;;;;4.25;2.50;;;;;;;18.21;90.67;99276.09;5025014;28;20073;-70
2022/09/07 06:46:03;;;;;;;10.38;3.25;;;;;;;18.18;92.23;99279.00;5027531;28;20084;-70
2022/09/07 06:48:30;;;;;;;11.32;4.03;;;;;;;18.14;93.90;99260.72;5023589;28;20053;-70
2022/09/07 06:50:58;;;;;;;4.78;2.85;;;;;;;18.13;95.25;99281.25;5025199;28;20481;-70
2022/09/07 06:53:25;;;;;;;7.10;2.92;;;;;;;18.06;94.91;99288.09;5024450;28;20080;-69
2022/09/07 06:55:52;;;;;;;9.63;2.67;;;;;;;18.34;94.34;99291.00;5023181;28;20076;-58
2022/09/07 06:58:19;;;;;;;9.32;2.95;;;;;;;18.58;92.18;99280.78;5023093;28;20433;-56
2022/09/07 07:00:45;;;;;;;4.35;2.30;;;;;;;18.75;90.47;99278.38;5016904;28;20529;-55
2022/09/07 07:03:13;;;;;;;5.22;2.80;;;;;;;18.96;89.09;99270.28;5013197;28;20049;-57
2022/09/07 07:05:40;;;;;;;7.20;2.67;;;;;;;19.00;88.34;99279.66;5013046;28;20132;-56
2022/09/07 07:08:06;;;;;;;8.70;2.25;;;;;;;18.87;88.38;99275.47;5025977;28;20168;-56
2022/09/07 07:10:37;;;;;;;3.67;2.47;;;;;;;18.84;90.46;99272.25;5032463;28;20137;-53
2022/09/07 07:13:04;;;;;;;4.50;2.85;;;;;;;18.92;90.17;99279.53;5032647;28;20084;-51
2022/09/07 07:15:31;;;;;;;5.03;2.30;;;;;;;18.94;90.53;99291.78;5032689;28;20132;-57
2022/09/07 07:17:57;;;;;;;8.82;2.90;;;;;;;19.00;92.44;99293.03;5032681;28;20045;-59
2022/09/07 07:20:25;;;;;;;5.93;2.78;;;;;;;19.06;92.49;99289.81;5033464;28;20053;-59
2022/09/07 07:22:52;;;;;;;5.22;2.78;;;;;;;19.13;93.04;99292.75;5033204;28;20573;-59
2022/09/07 07:25:19;;;;;;;6.43;3.30;;;;;;;19.27;91.49;99297.63;5032880;28;20093;-59
2022/09/07 07:27:46;;;;;;;4.53;3.00;;;;;;;19.38;88.79;99294.81;5032330;28;20136;-60
2022/09/07 07:30:13;;;;;;;4.20;2.33;;;;;;;19.42;88.78;99295.38;5032630;28;20225;-58
2022/09/07 07:32:40;;;;;;;4.40;2.38;;;;;;;19.44;87.24;99293.41;5032143;28;20064;-60
2022/09/07 07:35:07;;;;;;;8.65;4.25;;;;;;;19.41;88.89;99294.53;5031929;28;20065;-60
2022/09/07 07:37:36;;;;;;;4.13;2.85;;;;;;;19.37;90.95;99294.94;5031988;28;20128;-59
2022/09/07 07:40:04;;;;;;;8.93;3.00;;;;;;;19.36;89.79;99290.59;5032229;28;20060;-60
2022/09/07 07:42:31;;;;;;;4.35;2.38;;;;;;;19.40;88.15;99295.53;5031974;28;20625;-60
2022/09/07 07:44:58;;;;;;;5.63;2.53;;;;;;;19.50;87.39;99299.00;5042558;28;20163;-58
2022/09/07 07:47:25;;;;;;;3.75;2.75;;;;;;;19.52;86.87;99293.53;5051733;28;20136;-70
2022/09/07 07:49:52;;;;;;;5.05;2.88;;;;;;;19.52;87.23;99291.69;5051868;28;20068;-70
2022/09/07 07:52:19;;;;;;;6.15;2.60;;;;;;;19.47;87.55;99287.78;5029757;28;20081;-70
2022/09/07 07:54:47;;;;;;;9.05;3.10;;;;;;;19.52;87.62;99286.34;5027782;28;20052;-69
2022/09/07 07:57:15;;;;;;;4.20;2.65;;;;;;;19.57;87.77;99285.91;5031006;28;20157;-69
2022/09/07 07:59:42;;;;;;;3.65;2.58;;;;;;;19.73;88.19;99293.34;5031664;28;20053;-69
2022/09/07 08:02:14;;;;;;;6.43;3.67;;;;;;;19.92;86.74;99298.63;5031738;28;20133;-71
2022/09/07 08:04:41;;;;;;;4.65;2.70;;;;;;;20.02;86.31;99303.09;5031704;28;20132;-70
2022/09/07 08:07:10;;;;;;;4.82;2.42;;;;;;;20.17;85.26;99310.47;5031408;28;20145;-70
2022/09/07 08:09:38;;;;;;;5.13;4.20;;;;;;;20.28;87.12;99308.59;5031426;28;20107;-69
2022/09/07 08:12:06;;;;;;;5.60;3.72;;;;;;;20.42;85.48;99307.25;5031709;28;20064;-69
2022/09/07 08:14:35;;;;;;;4.25;2.80;;;;;;;20.49;85.59;99305.66;5032038;28;20596;-69
2022/09/07 08:17:01;;;;;;;4.45;2.95;;;;;;;20.58;83.91;99312.81;5032684;28;20168;-69
2022/09/07 08:19:28;;;;;;;4.38;2.35;;;;;;;20.72;83.23;99312.31;5031502;28;20050;-70
2022/09/07 08:21:55;;;;;;;3.83;2.40;;;;;;;20.90;79.68;99306.94;5031911;28;20049;-70
2022/09/07 08:24:21;;;;;;;4.97;2.63;;;;;;;21.08;77.28;99316.81;5031263;28;20037;-69
2022/09/07 08:26:48;;;;;;;3.65;2.83;;;;;;;21.12;77.50;99310.16;5031843;28;20050;-67
2022/09/07 08:29:16;;;;;;;4.43;2.72;;;;;;;21.35;76.37;99316.69;5032144;28;20519;-68
2022/09/07 08:31:43;;;;;;;4.70;2.65;;;;;;;21.52;75.73;99319.53;5030807;28;20052;-68
2022/09/07 08:34:09;;;;;;;6.28;2.80;;;;;;;21.57;75.70;99318.03;5031225;28;20508;-68
2022/09/07 08:36:36;;;;;;;4.72;3.10;;;;;;;21.56;74.85;99311.00;5031124;28;20084;-69
2022/09/07 08:39:03;;;;;;;6.25;3.05;;;;;;;21.57;75.48;99315.38;5031029;28;20085;-69
2022/09/07 08:41:45;;;;;;;5.95;3.10;;;;;;;21.62;75.24;99313.06;5030841;28;20175;-69
2022/09/07 08:44:16;;;;;;;6.95;2.88;;;;;;;21.64;73.98;99316.41;5030590;28;20050;-69
2022/09/07 08:46:48;;;;;;;6.95;3.00;;;;;;;21.76;75.66;99321.53;5030621;28;20099;-72
2022/09/07 08:49:20;;;;;;;3.60;2.88;;;;;;;21.91;74.83;99313.72;5027449;28;20049;-69
2022/09/07 08:51:53;;;;;;;4.28;3.10;;;;;;;22.06;72.59;99321.00;5011381;28;20494;-70
2022/09/07 08:54:19;;;;;;;6.68;2.83;;;;;;;22.25;73.04;99329.88;5010998;28;20050;-70
2022/09/07 08:56:50;;;;;;;6.35;3.08;;;;;;;22.37;71.31;99331.22;5010695;28;20049;-71
2022/09/07 08:59:24;;;;;;;4.78;3.13;;;;;;;22.54;70.97;99333.97;5011223;28;20057;-69
2022/09/07 09:01:52;;;;;;;5.65;2.75;;;;;;;22.56;70.23;99342.72;5011291;28;20056;-69
2022/09/07 09:04:22;;;;;;;4.18;2.92;;;;;;;22.69;69.41;99343.06;5010418;28;20516;-70
2022/09/07 09:07:03;;;;;;;5.70;3.42;;;;;;;22.83;67.70;99349.66;5011085;28;20046;-70
2022/09/07 09:09:44;;;;;;;9.40;3.42;;;;;;;22.65;68.72;99356.00;5010914;28;20073;-71
2022/09/07 09:12:21;;;;;;;7.32;3.92;;;;;;;22.48;68.23;99355.13;5010970;28;20145;-69
2022/09/07 09:15:04;;;;;;;5.03;3.92;;;;;;;22.43;68.26;99364.66;5010853;28;20057;-70
2022/09/07 09:17:37;;;;;;;8.35;4.20;;;;;;;22.57;67.01;99369.44;5010751;28;20076;-70
2022/09/07 09:20:16;;;;;;;6.00;4.10;;;;;;;22.59;67.80;99366.56;5011063;28;20054;-68
2022/09/07 09:22:43;;;;;;;6.10;3.22;;;;;;;22.53;68.17;99370.75;5010823;28;20056;-71
2022/09/07 09:25:18;;;;;;;5.97;4.05;;;;;;;23.05;65.26;99378.63;5010217;28;20048;-68
2022/09/07 09:27:45;;;;;;;7.82;3.85;;;;;;;24.37;61.19;99377.50;5010120;28;20050;-68
2022/09/07 09:30:14;;;;;;;7.57;3.88;;;;;;;25.23;58.00;99377.59;5010614;28;20413;-67
2022/09/07 09:32:43;;;;;;;6.75;3.67;;;;;;;25.90;55.54;99376.84;5021266;28;20084;-68
2022/09/07 09:35:16;;;;;;;10.30;4.25;;;;;;;26.65;53.12;99375.81;5031212;28;20055;-67
2022/09/07 09:37:44;;;;;;;5.45;2.83;;;;;;;26.81;52.57;99379.34;5048828;28;20048;-69
2022/09/07 09:40:23;;;;;;;6.00;3.28;;;;;;;26.28;53.33;99377.59;5049901;28;20158;-67
2022/09/07 09:43:00;;;;;;;5.95;3.20;;;;;;;26.93;51.84;99381.34;5048491;28;20052;-68
2022/09/07 09:45:29;;;;;;;4.70;2.88;;;;;;;27.32;50.33;99373.84;5018341;28;20449;-68
2022/09/07 09:47:58;;;;;;;5.47;2.85;;;;;;;27.97;48.81;99370.03;5009887;28;20042;-68
2022/09/07 09:50:29;;;;;;;8.75;4.43;;;;;;;28.36;47.48;99373.19;5009812;28;20050;-69
2022/09/07 09:52:56;;;;;;;3.75;2.95;;;;;;;28.62;46.62;99367.88;5020166;28;20049;-68
2022/09/07 09:55:30;;;;;;;16.35;3.35;;;;;;;28.81;46.04;99370.88;5029800;28;20662;-70
2022/09/07 09:58:00;;;;;;;3.75;2.55;;;;;;;28.69;46.08;99362.50;5029727;28;20136;-70
2022/09/07 10:00:28;;;;;;;4.65;2.67;;;;;;;29.21;43.58;99371.81;5029937;28;20402;-69
2022/09/07 10:03:06;;;;;;;5.90;2.58;;;;;;;29.18;43.55;99371.41;5027212;28;20523;-69
2022/09/07 10:05:38;;;;;;;6.72;2.75;;;;;;;29.42;43.20;99367.28;5028777;28;20489;-69
2022/09/07 10:08:16;;;;;;;9.35;3.55;;;;;;;29.50;42.16;99375.19;5029121;28;20501;-69
2022/09/07 10:10:57;;;;;;;6.90;2.42;;;;;;;29.68;41.47;99366.44;5029548;28;20056;-70
2022/09/07 10:13:27;;;;;;;3.30;1.98;;;;;;;29.84;41.16;99367.91;5029297;28;20053;-69
2022/09/07 10:15:56;;;;;;;3.00;2.28;;;;;;;30.18;40.54;99356.75;5029314;28;20053;-70
2022/09/07 10:18:37;;;;;;;2.97;1.83;;;;;;;30.85;39.36;99355.69;5029368;28;20045;-70
2022/09/07 10:21:29;;;;;;;5.53;2.38;;;;;;;31.09;38.64;99351.38;5029721;28;20420;-70
2022/09/07 10:23:59;;;;;;;3.53;2.05;;;;;;;31.46;38.65;99352.38;5009992;28;20091;-69
2022/09/07 10:26:32;;;;;;;4.47;2.47;;;;;;;31.78;36.94;99347.69;5029139;28;20445;-70
2022/09/07 10:29:15;;;;;;;3.92;2.03;;;;;;;32.01;36.16;99348.94;5029762;28;20489;-68
2022/09/07 10:32:05;;;;;;;4.05;2.05;;;;;;;32.23;35.97;99350.16;5029614;28;20128;-70
2022/09/07 10:34:43;;;;;;;4.18;1.88;;;;;;;32.14;36.11;99347.97;5028984;28;20057;-70
2022/09/07 10:37:16;;;;;;;4.50;2.40;;;;;;;31.02;37.24;99351.41;5029315;28;20472;-70
2022/09/07 10:39:56;;;;;;;3.25;1.85;;;;;;;29.95;38.93;99351.81;5030140;28;20067;-69
2022/09/07 10:42:27;;;;;;;8.35;2.17;;;;;;;28.84;41.65;99341.44;5018718;28;20042;-70
2022/09/07 10:45:03;;;;;;;5.65;2.05;;;;;;;28.41;41.95;99344.41;5009497;28;20140;-70
2022/09/07 10:47:42;;;;;;;4.30;2.38;;;;;;;28.19;42.96;99343.69;5009713;28;20089;-70
2022/09/07 10:50:29;;;;;;;3.70;2.00;;;;;;;27.47;43.54;99336.72;5009673;28;20103;-70
2022/09/07 10:53:11;;;;;;;5.95;2.30;;;;;;;26.62;44.90;99335.63;5009683;28;20058;-69
2022/09/07 10:55:40;;;;;;;6.38;2.25;;;;;;;26.29;45.80;99336.06;5010136;28;20053;-68
2022/09/07 10:58:19;;;;;;;13.38;2.72;;;;;;;26.24;46.13;99326.84;5009757;28;20061;-69
2022/09/07 11:01:03;;;;;;;8.82;2.67;;;;;;;25.99;45.55;99327.13;5008713;28;20064;-67
2022/09/07 11:03:51;;;;;;;5.45;1.80;;;;;;;25.54;46.86;99328.06;5009245;28;20054;-68
2022/09/07 11:06:25;;;;;;;4.28;2.00;;;;;;;25.47;46.54;99323.41;5009289;28;20060;-67
2022/09/07 11:09:16;;;;;;;5.20;1.95;;;;;;;25.51;46.87;99320.34;5009860;28;20556;-69
2022/09/07 11:11:46;;;;;;;4.65;1.98;;;;;;;25.53;47.36;99327.22;5009753;28;20061;-68
2022/09/07 11:14:16;;;;;;;6.70;2.42;;;;;;;25.46;46.41;99329.81;5022305;28;20045;-68
2022/09/07 11:16:48;;;;;;;5.93;2.60;;;;;;;25.44;46.30;99323.75;5029298;28;20144;-67
2022/09/07 11:19:20;;;;;;;2.30;1.30;;;;;;;25.43;46.42;99327.50;5029439;28;20068;-68
2022/09/07 11:21:58;;;;;;;5.55;2.35;;;;;;;25.35;46.67;99324.88;5029240;28;20060;-67
2022/09/07 11:24:31;;;;;;;7.93;2.22;;;;;;;25.41;46.94;99326.81;5028649;28;20114;-68
2022/09/07 11:27:02;;;;;;;3.33;2.17;;;;;;;25.46;46.69;99329.81;5029573;28;20535;-69
2022/09/07 11:29:38;;;;;;;9.10;2.50;;;;;;;25.41;46.59;99337.63;5033065;28;20111;-70
2022/09/07 11:32:09;;;;;;;3.88;1.92;;;;;;;25.23;47.28;99326.31;5032645;28;20045;-70
2022/09/07 11:34:43;;;;;;;7.20;2.35;;;;;;;25.22;46.76;99327.34;5046773;28;20052;-69
2022/09/07 11:37:18;;;;;;;6.07;2.38;;;;;;;25.18;46.18;99328.69;5033201;28;20049;-69
2022/09/07 11:39:50;;;;;;;7.80;2.45;;;;;;;24.85;46.66;99318.97;5028670;28;20497;-69
2022/09/07 11:42:24;;;;;;;6.70;1.90;;;;;;;24.86;47.56;99319.84;5032606;28;20049;-70
2022/09/07 11:44:55;;;;;;;4.50;2.15;;;;;;;25.02;47.41;99319.69;5032569;28;20057;-69
2022/09/07 11:47:28;;;;;;;5.40;2.28;;;;;;;25.15;48.03;99316.38;5032123;28;20060;-70